sensor_id;sensor_type;location;lat;lon;timestamp;pressure;altitude;pressure_sealevel;temperature;humidity
64076;BME280;50327;51.328;12.324;2024-01-06T00:02:18;99114.31;;;23.29;42.96
64076;BME280;50327;51.328;12.324;2024-01-06T00:04:43;99123.44;;;23.28;43.03
64076;BME280;50327;51.328;12.324;2024-01-06T00:07:08;99120.78;;;23.28;43.10
64076;BME280;50327;51.328;12.324;2024-01-06T00:09:34;99116.91;;;23.25;43.52
64076;BME280;50327;51.328;12.324;2024-01-06T00:11:59;99119.56;;;23.25;43.29
64076;BME280;50327;51.328;12.324;2024-01-06T00:14:26;99119.16;;;23.23;43.36
64076;BME280;50327;51.328;12.324;2024-01-06T00:16:52;99113.84;;;23.23;43.73
64076;BME280;50327;51.328;12.324;2024-01-06T00:19:17;99118.03;;;23.24;43.79
64076;BME280;50327;51.328;12.324;2024-01-06T00:21:43;99123.34;;;23.24;43.91
64076;BME280;50327;51.328;12.324;2024-01-06T00:24:08;99119.16;;;23.23;43.70
64076;BME280;50327;51.328;12.324;2024-01-06T00:26:34;99117.59;;;23.22;44.15
64076;BME280;50327;51.328;12.324;2024-01-06T00:28:59;99109.63;;;23.22;44.05
64076;BME280;50327;51.328;12.324;2024-01-06T00:31:24;99122.91;;;23.22;44.29
64076;BME280;50327;51.328;12.324;2024-01-06T00:33:50;99117.59;;;23.22;44.35
64076;BME280;50327;51.328;12.324;2024-01-06T00:36:15;99122.91;;;23.22;44.46
64076;BME280;50327;51.328;12.324;2024-01-06T00:38:41;99124.03;;;23.21;43.80
64076;BME280;50327;51.328;12.324;2024-01-06T00:41:06;99116.06;;;23.21;44.21
64076;BME280;50327;51.328;12.324;2024-01-06T00:43:31;99120.97;;;23.19;44.14
64076;BME280;50327;51.328;12.324;2024-01-06T00:45:57;99112.16;;;23.19;44.66
64076;BME280;50327;51.328;12.324;2024-01-06T00:48:22;99113.28;;;23.18;44.29
64076;BME280;50327;51.328;12.324;2024-01-06T00:50:47;99118.94;;;23.16;44.45
64076;BME280;50327;51.328;12.324;2024-01-06T00:53:13;99113.63;;;23.16;43.92
64076;BME280;50327;51.328;12.324;2024-01-06T00:55:39;99125.72;;;23.14;43.31
64076;BME280;50327;51.328;12.324;2024-01-06T00:58:04;99121.19;;;23.14;44.33
64076;BME280;50327;51.328;12.324;2024-01-06T01:00:29;99121.88;;;23.11;44.56
64076;BME280;50327;51.328;12.324;2024-01-06T01:02:55;99124.53;;;23.11;44.36
64076;BME280;50327;51.328;12.324;2024-01-06T01:05:20;99130.97;;;23.10;44.31
64076;BME280;50327;51.328;12.324;2024-01-06T01:07:45;99132.06;;;23.09;44.37
64076;BME280;50327;51.328;12.324;2024-01-06T01:10:11;99132.06;;;23.09;44.51
64076;BME280;50327;51.328;12.324;2024-01-06T01:12:36;99130.53;;;23.08;44.40
64076;BME280;50327;51.328;12.324;2024-01-06T01:15:02;99135.41;;;23.06;44.45
64076;BME280;50327;51.328;12.324;2024-01-06T01:17:27;99136.50;;;23.05;44.69
64076;BME280;50327;51.328;12.324;2024-01-06T01:19:52;99141.06;;;23.05;44.78
64076;BME280;50327;51.328;12.324;2024-01-06T01:22:18;99136.09;;;23.03;44.66
64076;BME280;50327;51.328;12.324;2024-01-06T01:24:43;99146.72;;;23.03;44.61
64076;BME280;50327;51.328;12.324;2024-01-06T01:27:09;99137.56;;;23.01;44.69
64076;BME280;50327;51.328;12.324;2024-01-06T01:29:35;99142.09;;;23.00;44.71
64076;BME280;50327;51.328;12.324;2024-01-06T01:32:00;99153.84;;;22.99;44.70
64076;BME280;50327;51.328;12.324;2024-01-06T01:34:25;99136.34;;;22.98;44.65
64076;BME280;50327;51.328;12.324;2024-01-06T01:36:51;99142.09;;;23.00;44.39
64076;BME280;50327;51.328;12.324;2024-01-06T01:39:17;99137.09;;;22.99;44.57
64076;BME280;50327;51.328;12.324;2024-01-06T01:41:42;99147.31;;;22.97;44.72
64076;BME280;50327;51.328;12.324;2024-01-06T01:44:08;99144.66;;;22.97;44.72
64076;BME280;50327;51.328;12.324;2024-01-06T01:46:33;99137.03;;;22.95;44.46
64076;BME280;50327;51.328;12.324;2024-01-06T01:49:00;99145.78;;;22.96;44.31
64076;BME280;50327;51.328;12.324;2024-01-06T01:51:29;99144.59;;;22.93;44.32
64076;BME280;50327;51.328;12.324;2024-01-06T01:53:56;99149.13;;;22.93;44.25
64076;BME280;50327;51.328;12.324;2024-01-06T01:56:22;99158.28;;;22.95;44.54
64076;BME280;50327;51.328;12.324;2024-01-06T01:58:48;99152.56;;;22.93;44.47
64076;BME280;50327;51.328;12.324;2024-01-06T02:01:15;99157.88;;;22.93;44.70
64076;BME280;50327;51.328;12.324;2024-01-06T02:03:41;99169.19;;;22.90;44.43
64076;BME280;50327;51.328;12.324;2024-01-06T02:06:09;99172.25;;;22.92;44.41
64076;BME280;50327;51.328;12.324;2024-01-06T02:08:34;99171.06;;;22.90;44.35
64076;BME280;50327;51.328;12.324;2024-01-06T02:10:59;99174.50;;;22.90;44.69
64076;BME280;50327;51.328;12.324;2024-01-06T02:13:33;99172.97;;;22.89;44.51
64076;BME280;50327;51.328;12.324;2024-01-06T02:15:59;99180.16;;;22.89;44.70
64076;BME280;50327;51.328;12.324;2024-01-06T02:18:24;99180.50;;;22.87;44.29
64076;BME280;50327;51.328;12.324;2024-01-06T02:20:51;99169.09;;;22.87;44.54
64076;BME280;50327;51.328;12.324;2024-01-06T02:23:18;99177.06;;;22.87;44.40
64076;BME280;50327;51.328;12.324;2024-01-06T02:25:43;99175.50;;;22.86;44.68
64076;BME280;50327;51.328;12.324;2024-01-06T02:28:08;99175.84;;;22.84;44.38
64076;BME280;50327;51.328;12.324;2024-01-06T02:30:34;99175.84;;;22.84;44.34
64076;BME280;50327;51.328;12.324;2024-01-06T02:32:59;99184.94;;;22.83;44.65
64076;BME280;50327;51.328;12.324;2024-01-06T02:35:24;99185.28;;;22.82;44.46
64076;BME280;50327;51.328;12.324;2024-01-06T02:37:50;99184.19;;;22.83;44.55
64076;BME280;50327;51.328;12.324;2024-01-06T02:40:15;99189.84;;;22.81;44.39
64076;BME280;50327;51.328;12.324;2024-01-06T02:42:40;99186.38;;;22.81;44.37
64076;BME280;50327;51.328;12.324;2024-01-06T02:45:07;99192.50;;;22.81;44.48
64076;BME280;50327;51.328;12.324;2024-01-06T02:47:33;99198.56;;;22.82;44.59
64076;BME280;50327;51.328;12.324;2024-01-06T02:49:58;99186.72;;;22.79;44.51
64076;BME280;50327;51.328;12.324;2024-01-06T02:52:24;99193.59;;;22.80;44.59
64076;BME280;50327;51.328;12.324;2024-01-06T02:54:49;99195.81;;;22.78;44.55
64076;BME280;50327;51.328;12.324;2024-01-06T02:57:15;99197.28;;;22.76;44.73
64076;BME280;50327;51.328;12.324;2024-01-06T02:59:40;99199.59;;;22.77;44.31
64076;BME280;50327;51.328;12.324;2024-01-06T03:02:06;99199.94;;;22.76;44.54
64076;BME280;50327;51.328;12.324;2024-01-06T03:04:31;99206.78;;;22.77;44.83
64076;BME280;50327;51.328;12.324;2024-01-06T03:06:56;99210.56;;;22.76;44.60
64076;BME280;50327;51.328;12.324;2024-01-06T03:09:22;99215.09;;;22.75;44.63
64076;BME280;50327;51.328;12.324;2024-01-06T03:11:47;99213.56;;;22.74;44.89
64076;BME280;50327;51.328;12.324;2024-01-06T03:14:12;99218.88;;;22.74;44.46
64076;BME280;50327;51.328;12.324;2024-01-06T03:16:38;99216.53;;;22.73;44.57
64076;BME280;50327;51.328;12.324;2024-01-06T03:19:03;99210.09;;;22.74;44.76
64076;BME280;50327;51.328;12.324;2024-01-06T03:21:28;99219.19;;;22.73;44.39
64076;BME280;50327;51.328;12.324;2024-01-06T03:23:54;99211.22;;;22.73;44.43
64076;BME280;50327;51.328;12.324;2024-01-06T03:26:20;99219.53;;;22.71;44.81
64076;BME280;50327;51.328;12.324;2024-01-06T03:28:46;99208.16;;;22.71;44.59
64076;BME280;50327;51.328;12.324;2024-01-06T03:31:11;99218.00;;;22.70;44.50
64076;BME280;50327;51.328;12.324;2024-01-06T03:33:36;99220.66;;;22.70;44.65
64076;BME280;50327;51.328;12.324;2024-01-06T03:36:08;99225.53;;;22.68;44.72
64076;BME280;50327;51.328;12.324;2024-01-06T03:38:33;99228.19;;;22.68;44.64
64076;BME280;50327;51.328;12.324;2024-01-06T03:40:58;99220.97;;;22.69;44.59
64076;BME280;50327;51.328;12.324;2024-01-06T03:43:24;99227.41;;;22.68;44.84
64076;BME280;50327;51.328;12.324;2024-01-06T03:45:49;99223.97;;;22.67;44.74
64076;BME280;50327;51.328;12.324;2024-01-06T03:48:14;99229.28;;;22.67;44.76
64076;BME280;50327;51.328;12.324;2024-01-06T03:50:40;99235.38;;;22.68;44.76
64076;BME280;50327;51.328;12.324;2024-01-06T03:53:05;99239.91;;;22.67;44.51
64076;BME280;50327;51.328;12.324;2024-01-06T03:55:31;99239.16;;;22.67;44.59
64076;BME280;50327;51.328;12.324;2024-01-06T03:57:56;99234.19;;;22.65;44.63
64076;BME280;50327;51.328;12.324;2024-01-06T04:00:21;99240.63;;;22.64;44.35
64076;BME280;50327;51.328;12.324;2024-01-06T04:02:47;99235.31;;;22.64;44.65
64076;BME280;50327;51.328;12.324;2024-01-06T04:05:12;99236.75;;;22.62;44.87
64076;BME280;50327;51.328;12.324;2024-01-06T04:07:38;99236.06;;;22.65;44.48
64076;BME280;50327;51.328;12.324;2024-01-06T04:10:03;99240.94;;;22.63;44.60
64076;BME280;50327;51.328;12.324;2024-01-06T04:12:29;99229.88;;;22.61;44.49
64076;BME280;50327;51.328;12.324;2024-01-06T04:14:54;99235.19;;;22.61;44.64
64076;BME280;50327;51.328;12.324;2024-01-06T04:17:19;99235.63;;;22.63;44.78
64076;BME280;50327;51.328;12.324;2024-01-06T04:19:45;99240.50;;;22.61;44.67
64076;BME280;50327;51.328;12.324;2024-01-06T04:22:10;99252.25;;;22.60;44.58
64076;BME280;50327;51.328;12.324;2024-01-06T04:24:35;99252.69;;;22.62;44.58
64076;BME280;50327;51.328;12.324;2024-01-06T04:27:04;99243.50;;;22.59;44.65
64076;BME280;50327;51.328;12.324;2024-01-06T04:29:29;99252.56;;;22.58;44.53
64076;BME280;50327;51.328;12.324;2024-01-06T04:31:55;99257.88;;;22.58;44.88
64076;BME280;50327;51.328;12.324;2024-01-06T04:34:20;99265.09;;;22.58;44.69
64076;BME280;50327;51.328;12.324;2024-01-06T04:36:45;99269.28;;;22.59;44.83
64076;BME280;50327;51.328;12.324;2024-01-06T04:39:11;99262.44;;;22.58;44.57
64076;BME280;50327;51.328;12.324;2024-01-06T04:41:39;99261.66;;;22.57;44.48
64076;BME280;50327;51.328;12.324;2024-01-06T04:44:05;99263.19;;;22.58;44.38
64076;BME280;50327;51.328;12.324;2024-01-06T04:46:30;99256.34;;;22.57;44.62
64076;BME280;50327;51.328;12.324;2024-01-06T04:48:56;99259.78;;;22.58;44.67
64076;BME280;50327;51.328;12.324;2024-01-06T04:51:21;99260.88;;;22.57;44.70
64076;BME280;50327;51.328;12.324;2024-01-06T04:53:47;99260.53;;;22.58;44.78
64076;BME280;50327;51.328;12.324;2024-01-06T04:56:12;99250.25;;;22.57;44.60
64076;BME280;50327;51.328;12.324;2024-01-06T04:58:38;99260.88;;;22.57;44.54
64076;BME280;50327;51.328;12.324;2024-01-06T05:01:04;99256.34;;;22.57;44.78
64076;BME280;50327;51.328;12.324;2024-01-06T05:03:29;99256.34;;;22.57;44.47
64076;BME280;50327;51.328;12.324;2024-01-06T05:05:55;99252.91;;;22.57;44.50
64076;BME280;50327;51.328;12.324;2024-01-06T05:08:20;99255.56;;;22.57;44.44
64076;BME280;50327;51.328;12.324;2024-01-06T05:10:48;99269.63;;;22.57;44.65
64076;BME280;50327;51.328;12.324;2024-01-06T05:13:13;99261.66;;;22.57;44.47
64076;BME280;50327;51.328;12.324;2024-01-06T05:15:39;99266.56;;;22.55;44.70
64076;BME280;50327;51.328;12.324;2024-01-06T05:18:04;99260.13;;;22.56;44.43
64076;BME280;50327;51.328;12.324;2024-01-06T05:20:30;99271.50;;;22.57;44.68
64076;BME280;50327;51.328;12.324;2024-01-06T05:22:55;99272.63;;;22.56;44.55
64076;BME280;50327;51.328;12.324;2024-01-06T05:25:20;99274.94;;;22.57;44.69
64076;BME280;50327;51.328;12.324;2024-01-06T05:27:46;99279.47;;;22.57;44.79
64076;BME280;50327;51.328;12.324;2024-01-06T05:30:11;99274.53;;;22.55;44.62
64076;BME280;50327;51.328;12.324;2024-01-06T05:32:37;99275.28;;;22.56;44.41
64076;BME280;50327;51.328;12.324;2024-01-06T05:35:03;99274.53;;;22.55;44.42
64076;BME280;50327;51.328;12.324;2024-01-06T05:37:28;99284.03;;;22.56;44.63
64076;BME280;50327;51.328;12.324;2024-01-06T05:39:54;99284.03;;;22.56;44.52
64076;BME280;50327;51.328;12.324;2024-01-06T05:42:19;99284.03;;;22.56;44.40
64076;BME280;50327;51.328;12.324;2024-01-06T05:44:45;99294.66;;;22.56;44.76
64076;BME280;50327;51.328;12.324;2024-01-06T05:47:10;99293.13;;;22.55;44.72
64076;BME280;50327;51.328;12.324;2024-01-06T05:49:35;99301.09;;;22.55;44.36
64076;BME280;50327;51.328;12.324;2024-01-06T05:52:01;99295.00;;;22.55;44.63
64076;BME280;50327;51.328;12.324;2024-01-06T05:54:26;99299.97;;;22.56;44.55
64076;BME280;50327;51.328;12.324;2024-01-06T05:56:52;99300.31;;;22.55;44.58
64076;BME280;50327;51.328;12.324;2024-01-06T05:59:17;99319.34;;;22.57;44.33
64076;BME280;50327;51.328;12.324;2024-01-06T06:01:43;99313.25;;;22.56;44.38
64076;BME280;50327;51.328;12.324;2024-01-06T06:04:09;99313.25;;;22.56;44.46
64076;BME280;50327;51.328;12.324;2024-01-06T06:06:35;99320.13;;;22.57;44.45
64076;BME280;50327;51.328;12.324;2024-01-06T06:09:00;99325.44;;;22.57;44.63
64076;BME280;50327;51.328;12.324;2024-01-06T06:11:26;99323.09;;;22.56;44.58
64076;BME280;50327;51.328;12.324;2024-01-06T06:13:51;99329.19;;;22.56;44.89
64076;BME280;50327;51.328;12.324;2024-01-06T06:16:16;99330.75;;;22.57;44.80
64076;BME280;50327;51.328;12.324;2024-01-06T06:18:42;99332.63;;;22.57;44.59
64076;BME280;50327;51.328;12.324;2024-01-06T06:21:07;99331.84;;;22.56;44.53
64076;BME280;50327;51.328;12.324;2024-01-06T06:23:33;99341.38;;;22.57;44.79
64076;BME280;50327;51.328;12.324;2024-01-06T06:25:59;99341.38;;;22.57;44.35
64076;BME280;50327;51.328;12.324;2024-01-06T06:28:26;99342.16;;;22.58;44.55
64076;BME280;50327;51.328;12.324;2024-01-06T06:30:52;99349.34;;;22.57;44.35
64076;BME280;50327;51.328;12.324;2024-01-06T06:33:18;99357.78;;;22.59;44.59
64076;BME280;50327;51.328;12.324;2024-01-06T06:35:43;99364.16;;;22.58;44.36
64076;BME280;50327;51.328;12.324;2024-01-06T06:38:08;99369.50;;;22.58;44.52
64076;BME280;50327;51.328;12.324;2024-01-06T06:40:34;99368.41;;;22.59;44.60
64076;BME280;50327;51.328;12.324;2024-01-06T06:42:59;99369.50;;;22.58;44.53
64076;BME280;50327;51.328;12.324;2024-01-06T06:45:24;99371.06;;;22.59;44.71
64076;BME280;50327;51.328;12.324;2024-01-06T06:47:50;99377.91;;;22.60;44.57
64076;BME280;50327;51.328;12.324;2024-01-06T06:50:16;99389.66;;;22.59;44.66
64076;BME280;50327;51.328;12.324;2024-01-06T06:52:41;99392.31;;;22.59;44.48
64076;BME280;50327;51.328;12.324;2024-01-06T06:55:07;99390.41;;;22.60;44.50
64076;BME280;50327;51.328;12.324;2024-01-06T06:57:33;99398.38;;;22.60;44.82
64076;BME280;50327;51.328;12.324;2024-01-06T06:59:58;99396.53;;;22.60;44.71
64076;BME280;50327;51.328;12.324;2024-01-06T07:02:23;99392.31;;;22.59;44.65
64076;BME280;50327;51.328;12.324;2024-01-06T07:04:49;99403.06;;;22.63;44.42
64076;BME280;50327;51.328;12.324;2024-01-06T07:07:14;99400.06;;;22.64;44.77
64076;BME280;50327;51.328;12.324;2024-01-06T07:09:40;99400.06;;;22.64;44.43
64076;BME280;50327;51.328;12.324;2024-01-06T07:12:06;99400.72;;;22.61;44.54
64076;BME280;50327;51.328;12.324;2024-01-06T07:14:31;99407.91;;;22.61;44.46
64076;BME280;50327;51.328;12.324;2024-01-06T07:16:57;99412.13;;;22.62;44.45
64076;BME280;50327;51.328;12.324;2024-01-06T07:19:22;99418.53;;;22.61;44.15
64076;BME280;50327;51.328;12.324;2024-01-06T07:21:48;99422.06;;;22.65;44.17
64076;BME280;50327;51.328;12.324;2024-01-06T07:24:14;99423.19;;;22.64;39.77
64076;BME280;50327;51.328;12.324;2024-01-06T07:26:39;99432.72;;;22.65;40.03
64076;BME280;50327;51.328;12.324;2024-01-06T07:29:04;99431.25;;;22.67;39.29
64076;BME280;50327;51.328;12.324;2024-01-06T07:31:30;99436.59;;;22.67;38.56
64076;BME280;50327;51.328;12.324;2024-01-06T07:33:55;99426.63;;;22.64;36.03
64076;BME280;50327;51.328;12.324;2024-01-06T07:36:20;99438.03;;;22.65;38.98
64076;BME280;50327;51.328;12.324;2024-01-06T07:38:46;99448.00;;;22.68;40.43
64076;BME280;50327;51.328;12.324;2024-01-06T07:41:12;99448.00;;;22.68;40.91
64076;BME280;50327;51.328;12.324;2024-01-06T07:43:37;99453.75;;;22.70;41.72
64076;BME280;50327;51.328;12.324;2024-01-06T07:46:03;99455.31;;;22.71;42.02
64076;BME280;50327;51.328;12.324;2024-01-06T07:48:29;99464.06;;;22.71;41.55
64076;BME280;50327;51.328;12.324;2024-01-06T07:50:54;99460.97;;;22.69;41.56
64076;BME280;50327;51.328;12.324;2024-01-06T07:53:19;99469.69;;;22.70;41.53
64076;BME280;50327;51.328;12.324;2024-01-06T07:55:45;99462.06;;;22.68;41.85
64076;BME280;50327;51.328;12.324;2024-01-06T07:58:10;99468.94;;;22.69;41.87
64076;BME280;50327;51.328;12.324;2024-01-06T08:00:37;99466.28;;;22.69;41.83
64076;BME280;50327;51.328;12.324;2024-01-06T08:03:02;99472.34;;;22.70;41.85
64076;BME280;50327;51.328;12.324;2024-01-06T08:05:31;99478.13;;;22.72;41.65
64076;BME280;50327;51.328;12.324;2024-01-06T08:07:56;99476.91;;;22.69;42.01
64076;BME280;50327;51.328;12.324;2024-01-06T08:10:21;99490.63;;;22.71;42.04
64076;BME280;50327;51.328;12.324;2024-01-06T08:12:47;99490.63;;;22.71;42.01
64076;BME280;50327;51.328;12.324;2024-01-06T08:15:13;99502.03;;;22.72;42.58
64076;BME280;50327;51.328;12.324;2024-01-06T08:17:39;99495.50;;;22.69;42.34
64076;BME280;50327;51.328;12.324;2024-01-06T08:20:07;99500.81;;;22.69;42.88
64076;BME280;50327;51.328;12.324;2024-01-06T08:22:33;99503.91;;;22.71;42.78
64076;BME280;50327;51.328;12.324;2024-01-06T08:24:59;99508.81;;;22.69;42.75
64076;BME280;50327;51.328;12.324;2024-01-06T08:27:24;99514.88;;;22.70;43.05
64076;BME280;50327;51.328;12.324;2024-01-06T08:29:50;99520.97;;;22.70;42.76
64076;BME280;50327;51.328;12.324;2024-01-06T08:32:15;99514.88;;;22.70;42.93
64076;BME280;50327;51.328;12.324;2024-01-06T08:34:41;99523.19;;;22.68;42.87
64076;BME280;50327;51.328;12.324;2024-01-06T08:37:07;99522.41;;;22.68;42.85
64076;BME280;50327;51.328;12.324;2024-01-06T08:39:32;99522.41;;;22.68;42.85
64076;BME280;50327;51.328;12.324;2024-01-06T08:41:58;99530.06;;;22.69;42.92
64076;BME280;50327;51.328;12.324;2024-01-06T08:44:23;99529.06;;;22.74;42.98
64076;BME280;50327;51.328;12.324;2024-01-06T08:46:49;99529.06;;;22.74;42.97
64076;BME280;50327;51.328;12.324;2024-01-06T08:49:15;99532.97;;;22.76;42.99
64076;BME280;50327;51.328;12.324;2024-01-06T08:51:40;99529.53;;;22.76;43.01
64076;BME280;50327;51.328;12.324;2024-01-06T08:54:06;99534.84;;;22.76;42.93
64076;BME280;50327;51.328;12.324;2024-01-06T08:56:32;99536.72;;;22.75;43.05
64076;BME280;50327;51.328;12.324;2024-01-06T08:58:58;99534.94;;;22.79;42.97
64076;BME280;50327;51.328;12.324;2024-01-06T09:01:24;99542.59;;;22.81;43.29
64076;BME280;50327;51.328;12.324;2024-01-06T09:03:49;99547.81;;;22.77;40.19
64076;BME280;50327;51.328;12.324;2024-01-06T09:06:15;99559.38;;;22.61;34.88
64076;BME280;50327;51.328;12.324;2024-01-06T09:08:40;99553.97;;;22.57;35.45
64076;BME280;50327;51.328;12.324;2024-01-06T09:11:06;99559.72;;;22.59;38.18
64076;BME280;50327;51.328;12.324;2024-01-06T09:13:31;99562.94;;;22.65;40.12
64076;BME280;50327;51.328;12.324;2024-01-06T09:15:58;99551.97;;;22.66;40.02
64076;BME280;50327;51.328;12.324;2024-01-06T09:18:25;99548.22;;;22.67;40.45
64076;BME280;50327;51.328;12.324;2024-01-06T09:20:50;99556.66;;;22.69;40.63
64076;BME280;50327;51.328;12.324;2024-01-06T09:23:16;99547.56;;;22.70;41.29
64076;BME280;50327;51.328;12.324;2024-01-06T09:25:41;99556.44;;;22.74;41.64
64076;BME280;50327;51.328;12.324;2024-01-06T09:28:06;99557.97;;;22.75;41.44
64076;BME280;50327;51.328;12.324;2024-01-06T09:30:32;99566.72;;;22.76;41.78
64076;BME280;50327;51.328;12.324;2024-01-06T09:32:57;99572.47;;;22.78;41.75
64076;BME280;50327;51.328;12.324;2024-01-06T09:35:23;99572.16;;;22.79;41.84
64076;BME280;50327;51.328;12.324;2024-01-06T09:37:48;99574.50;;;22.81;41.55
64076;BME280;50327;51.328;12.324;2024-01-06T09:40:21;99581.34;;;22.82;42.05
64076;BME280;50327;51.328;12.324;2024-01-06T09:42:46;99573.06;;;22.83;42.03
64076;BME280;50327;51.328;12.324;2024-01-06T09:45:12;99577.72;;;22.86;42.29
64076;BME280;50327;51.328;12.324;2024-01-06T09:47:38;99583.03;;;22.86;42.10
64076;BME280;50327;51.328;12.324;2024-01-06T09:50:06;99583.47;;;22.88;42.48
64076;BME280;50327;51.328;12.324;2024-01-06T09:52:39;99583.47;;;22.88;42.65
64076;BME280;50327;51.328;12.324;2024-01-06T09:55:10;99585.81;;;22.90;42.45
64076;BME280;50327;51.328;12.324;2024-01-06T09:57:36;99584.38;;;22.92;42.25
64076;BME280;50327;51.328;12.324;2024-01-06T10:00:02;99598.13;;;22.94;42.58
64076;BME280;50327;51.328;12.324;2024-01-06T10:02:28;99599.66;;;22.95;42.33
64076;BME280;50327;51.328;12.324;2024-01-06T10:04:53;99591.69;;;22.95;42.45
64076;BME280;50327;51.328;12.324;2024-01-06T10:07:18;99602.75;;;22.97;42.40
64076;BME280;50327;51.328;12.324;2024-01-06T10:09:44;99592.91;;;22.98;42.11
64076;BME280;50327;51.328;12.324;2024-01-06T10:12:09;99597.56;;;23.01;42.99
64076;BME280;50327;51.328;12.324;2024-01-06T10:14:35;99591.94;;;23.02;42.83
64076;BME280;50327;51.328;12.324;2024-01-06T10:17:01;99585.50;;;23.03;42.31
64076;BME280;50327;51.328;12.324;2024-01-06T10:19:26;99595.03;;;23.04;43.10
64076;BME280;50327;51.328;12.324;2024-01-06T10:21:51;99596.56;;;23.05;42.67
64076;BME280;50327;51.328;12.324;2024-01-06T10:24:18;99595.91;;;23.08;42.86
64076;BME280;50327;51.328;12.324;2024-01-06T10:26:45;99608.09;;;23.09;43.01
64076;BME280;50327;51.328;12.324;2024-01-06T10:29:10;99604.00;;;23.12;42.99
64076;BME280;50327;51.328;12.324;2024-01-06T10:31:36;99604.78;;;23.12;43.22
64076;BME280;50327;51.328;12.324;2024-01-06T10:34:02;99603.66;;;23.13;42.97
64076;BME280;50327;51.328;12.324;2024-01-06T10:36:28;99606.78;;;23.15;42.74
64076;BME280;50327;51.328;12.324;2024-01-06T10:38:54;99610.66;;;23.18;42.51
64076;BME280;50327;51.328;12.324;2024-01-06T10:41:20;99606.09;;;23.18;42.96
64076;BME280;50327;51.328;12.324;2024-01-06T10:43:46;99611.91;;;23.20;43.09
64076;BME280;50327;51.328;12.324;2024-01-06T10:46:13;99614.56;;;23.20;43.32
64076;BME280;50327;51.328;12.324;2024-01-06T10:48:42;99611.91;;;23.20;42.38
64076;BME280;50327;51.328;12.324;2024-01-06T10:51:11;99614.56;;;23.20;42.96
64076;BME280;50327;51.328;12.324;2024-01-06T10:53:37;99608.94;;;23.22;43.04
64076;BME280;50327;51.328;12.324;2024-01-06T10:56:05;99601.28;;;23.20;42.53
64076;BME280;50327;51.328;12.324;2024-01-06T10:58:32;99606.28;;;23.22;42.81
64076;BME280;50327;51.328;12.324;2024-01-06T11:00:59;99599.41;;;23.21;42.91
64076;BME280;50327;51.328;12.324;2024-01-06T11:03:26;99606.59;;;23.20;42.88
64076;BME280;50327;51.328;12.324;2024-01-06T11:05:54;99603.16;;;23.20;42.75
64076;BME280;50327;51.328;12.324;2024-01-06T11:08:21;99597.06;;;23.19;42.93
64076;BME280;50327;51.328;12.324;2024-01-06T11:10:47;99601.28;;;23.20;42.88
64076;BME280;50327;51.328;12.324;2024-01-06T11:13:14;99601.28;;;23.20;43.05
64076;BME280;50327;51.328;12.324;2024-01-06T11:15:47;99605.47;;;23.21;43.06
64076;BME280;50327;51.328;12.324;2024-01-06T11:18:32;99600.16;;;23.21;42.77
64076;BME280;50327;51.328;12.324;2024-01-06T11:23:36;99598.63;;;23.20;42.42
64076;BME280;50327;51.328;12.324;2024-01-06T11:26:02;99597.06;;;23.19;42.75
64076;BME280;50327;51.328;12.324;2024-01-06T11:28:27;99596.75;;;23.21;42.72
64076;BME280;50327;51.328;12.324;2024-01-06T11:31:07;99595.97;;;23.20;42.61
64076;BME280;50327;51.328;12.324;2024-01-06T11:33:32;99606.91;;;23.19;42.48
64076;BME280;50327;51.328;12.324;2024-01-06T11:36:01;99603.81;;;23.17;42.54
64076;BME280;50327;51.328;12.324;2024-01-06T11:38:26;99603.81;;;23.17;42.30
64076;BME280;50327;51.328;12.324;2024-01-06T11:40:52;99601.91;;;23.17;42.40
64076;BME280;50327;51.328;12.324;2024-01-06T11:43:17;99603.00;;;23.16;42.75
64076;BME280;50327;51.328;12.324;2024-01-06T11:45:44;99596.91;;;23.16;42.35
64076;BME280;50327;51.328;12.324;2024-01-06T11:48:11;99601.47;;;23.15;42.37
64076;BME280;50327;51.328;12.324;2024-01-06T11:50:40;99598.81;;;23.15;41.95
64076;BME280;50327;51.328;12.324;2024-01-06T11:53:06;99600.69;;;23.15;42.19
64076;BME280;50327;51.328;12.324;2024-01-06T11:55:32;99598.47;;;23.17;42.42
64076;BME280;50327;51.328;12.324;2024-01-06T11:57:58;99598.13;;;23.18;42.11
64076;BME280;50327;51.328;12.324;2024-01-06T12:00:28;99603.44;;;23.18;42.15
64076;BME280;50327;51.328;12.324;2024-01-06T12:02:57;99600.03;;;23.18;42.11
64076;BME280;50327;51.328;12.324;2024-01-06T12:05:23;99599.56;;;23.16;42.29
64076;BME280;50327;51.328;12.324;2024-01-06T12:08:00;99603.44;;;23.18;42.29
64076;BME280;50327;51.328;12.324;2024-01-06T12:10:27;99612.22;;;23.19;42.30
64076;BME280;50327;51.328;12.324;2024-01-06T12:15:28;99623.66;;;23.19;41.36
64076;BME280;50327;51.328;12.324;2024-01-06T12:17:54;99619.75;;;23.17;40.96
64076;BME280;50327;51.328;12.324;2024-01-06T12:20:21;99632.28;;;23.16;41.39
64076;BME280;50327;51.328;12.324;2024-01-06T12:22:47;99637.16;;;23.14;40.87
64076;BME280;50327;51.328;12.324;2024-01-06T12:25:14;99639.47;;;23.16;41.46
64076;BME280;50327;51.328;12.324;2024-01-06T12:27:44;99634.94;;;23.16;41.76
64076;BME280;50327;51.328;12.324;2024-01-06T12:30:18;99637.28;;;23.18;41.33
64076;BME280;50327;51.328;12.324;2024-01-06T12:32:47;99637.28;;;23.18;40.72
64076;BME280;50327;51.328;12.324;2024-01-06T12:35:17;99628.50;;;23.17;40.75
64076;BME280;50327;51.328;12.324;2024-01-06T12:37:43;99637.28;;;23.18;41.06
64076;BME280;50327;51.328;12.324;2024-01-06T12:40:11;99629.28;;;23.18;41.28
64076;BME280;50327;51.328;12.324;2024-01-06T12:42:36;99634.31;;;23.19;41.25
64076;BME280;50327;51.328;12.324;2024-01-06T12:45:03;99640.38;;;23.20;41.12
64076;BME280;50327;51.328;12.324;2024-01-06T12:47:28;99639.63;;;23.19;41.13
64076;BME280;50327;51.328;12.324;2024-01-06T12:49:54;99640.38;;;23.20;41.18